TimeMST,TemperatureF,Dew PointF,Humidity,Sea Level PressureIn,VisibilityMPH,Wind Direction,Wind SpeedMPH,Gust SpeedMPH,PrecipitationIn,Events,Conditions,WindDirDegrees,DateUTC
12:06 AM,23.0,17.6,80,30.06,12.0,North,13.8,-,N/A,,Mostly Cloudy,360,2014-01-05 07:06:00
12:56 AM,21.9,16.2,78,30.04,12.0,North,13.8,19.6,N/A,,Partly Cloudy,360,2014-01-05 07:56:00
1:56 AM,20.1,16.0,84,30.08,12.0,North,5.8,-,N/A,,Partly Cloudy,350,2014-01-05 08:56:00
2:56 AM,18.5,14.4,84,30.09,12.0,North,5.8,-,N/A,,Clear,10,2014-01-05 09:56:00
3:56 AM,17.1,12.7,83,30.10,12.0,North,4.6,-,N/A,,Clear,350,2014-01-05 10:56:00
4:56 AM,15.3,11.7,86,30.13,12.0,North,4.6,-,N/A,,Clear,350,2014-01-05 11:56:00
5:56 AM,15.6,11.8,85,30.17,12.0,NNW,2.3,-,N/A,,Clear,340,2014-01-05 12:56:00
6:56 AM,14.0,10.0,84,30.25,12.0,WNW,2.3,-,N/A,,Clear,290,2014-01-05 13:56:00
7:56 AM,18.1,13.8,83,30.27,12.0,NW,2.3,-,N/A,,Clear,310,2014-01-05 14:56:00
8:56 AM,21.2,11.7,67,30.31,12.0,NE,3.5,-,N/A,,Clear,40,2014-01-05 15:56:00
9:56 AM,24.1,12.0,60,30.31,12.0,Variable,2.3,-,N/A,,Clear,0,2014-01-05 16:56:00
10:56 AM,27.3,10.6,49,30.29,12.0,Variable,3.5,-,N/A,,Clear,0,2014-01-05 17:56:00
11:56 AM,29.3,9.1,43,30.25,12.0,South,2.3,-,N/A,,Clear,170,2014-01-05 18:56:00
12:56 PM,32.0,8.2,37,30.22,12.0,Variable,4.6,-,N/A,,Clear,0,2014-01-05 19:56:00
1:56 PM,34.2,7.3,33,30.22,12.0,Variable,3.5,-,N/A,,Clear,0,2014-01-05 20:56:00
2:56 PM,34.9,6.4,30,30.22,12.0,ESE,5.8,-,N/A,,Clear,110,2014-01-05 21:56:00
3:56 PM,34.3,6.3,31,30.25,12.0,ESE,10.4,-,N/A,,Clear,110,2014-01-05 22:56:00
4:56 PM,28.9,5.9,38,30.29,12.0,ESE,9.2,-,N/A,,Clear,110,2014-01-05 23:56:00
5:56 PM,22.3,5.7,49,30.33,12.0,ESE,9.2,-,N/A,,Clear,120,2014-01-06 00:56:00
6:56 PM,20.5,6.6,55,30.36,12.0,SE,8.1,-,N/A,,Clear,130,2014-01-06 01:56:00
7:56 PM,17.8,6.8,62,30.42,12.0,East,6.9,-,N/A,,Clear,100,2014-01-06 02:56:00
8:56 PM,17.4,6.4,62,30.48,12.0,East,16.1,-,N/A,,Clear,80,2014-01-06 03:56:00
9:56 PM,12.7,5.4,72,30.52,12.0,ENE,13.8,-,N/A,,Clear,60,2014-01-06 04:56:00
10:56 PM,10.0,4.6,79,30.53,12.0,ENE,12.7,-,N/A,,Clear,70,2014-01-06 05:56:00
11:56 PM,8.8,4.3,82,30.55,12.0,East,9.2,-,N/A,,Clear,80,2014-01-06 06:56:00